sensor_id;sensor_type;location;lat;lon;timestamp;P1;durP1;ratioP1;P2;durP2;ratioP2
76290;SDS011;65100;46.884;17.410;2023-06-10T00:01:58;10.23;;;5.37;;
76290;SDS011;65100;46.884;17.410;2023-06-10T00:04:24;10.98;;;6.07;;
76290;SDS011;65100;46.884;17.410;2023-06-10T00:06:53;11.68;;;5.82;;
76290;SDS011;65100;46.884;17.410;2023-06-10T00:09:18;11.87;;;5.70;;
76290;SDS011;65100;46.884;17.410;2023-06-10T00:11:46;12.55;;;5.90;;
76290;SDS011;65100;46.884;17.410;2023-06-10T00:14:12;13.13;;;5.88;;
76290;SDS011;65100;46.884;17.410;2023-06-10T00:16:38;10.55;;;5.70;;
76290;SDS011;65100;46.884;17.410;2023-06-10T00:19:04;12.97;;;6.30;;
76290;SDS011;65100;46.884;17.410;2023-06-10T00:21:31;10.60;;;5.68;;
76290;SDS011;65100;46.884;17.410;2023-06-10T00:24:05;11.88;;;6.10;;
76290;SDS011;65100;46.884;17.410;2023-06-10T00:26:31;11.23;;;6.10;;
76290;SDS011;65100;46.884;17.410;2023-06-10T00:28:58;10.13;;;5.60;;
76290;SDS011;65100;46.884;17.410;2023-06-10T00:31:24;10.10;;;5.82;;
76290;SDS011;65100;46.884;17.410;2023-06-10T00:33:51;11.30;;;5.53;;
76290;SDS011;65100;46.884;17.410;2023-06-10T00:36:17;13.30;;;5.83;;
76290;SDS011;65100;46.884;17.410;2023-06-10T00:38:42;12.50;;;6.00;;
76290;SDS011;65100;46.884;17.410;2023-06-10T00:41:07;11.60;;;5.43;;
76290;SDS011;65100;46.884;17.410;2023-06-10T00:43:33;10.17;;;5.87;;
76290;SDS011;65100;46.884;17.410;2023-06-10T00:45:58;13.13;;;5.57;;
76290;SDS011;65100;46.884;17.410;2023-06-10T00:48:24;11.93;;;5.90;;
76290;SDS011;65100;46.884;17.410;2023-06-10T00:50:51;15.52;;;5.82;;
76290;SDS011;65100;46.884;17.410;2023-06-10T00:53:16;11.83;;;5.77;;
76290;SDS011;65100;46.884;17.410;2023-06-10T00:55:42;13.95;;;5.38;;
76290;SDS011;65100;46.884;17.410;2023-06-10T00:58:08;11.60;;;6.07;;
76290;SDS011;65100;46.884;17.410;2023-06-10T01:00:34;12.75;;;5.78;;
76290;SDS011;65100;46.884;17.410;2023-06-10T01:02:59;10.27;;;5.60;;
76290;SDS011;65100;46.884;17.410;2023-06-10T01:05:25;10.50;;;5.55;;
76290;SDS011;65100;46.884;17.410;2023-06-10T01:10:40;10.03;;;5.60;;
76290;SDS011;65100;46.884;17.410;2023-06-10T01:13:11;10.52;;;5.88;;
76290;SDS011;65100;46.884;17.410;2023-06-10T01:15:38;13.30;;;5.82;;
76290;SDS011;65100;46.884;17.410;2023-06-10T01:18:05;11.10;;;6.07;;
76290;SDS011;65100;46.884;17.410;2023-06-10T01:20:35;11.27;;;5.83;;
76290;SDS011;65100;46.884;17.410;2023-06-10T01:23:04;12.70;;;5.70;;
76290;SDS011;65100;46.884;17.410;2023-06-10T01:25:30;11.85;;;5.60;;
76290;SDS011;65100;46.884;17.410;2023-06-10T01:28:10;13.90;;;5.97;;
76290;SDS011;65100;46.884;17.410;2023-06-10T01:30:49;12.70;;;5.80;;
76290;SDS011;65100;46.884;17.410;2023-06-10T01:33:29;11.57;;;5.85;;
76290;SDS011;65100;46.884;17.410;2023-06-10T01:35:58;11.25;;;6.38;;
76290;SDS011;65100;46.884;17.410;2023-06-10T01:38:27;10.65;;;5.95;;
76290;SDS011;65100;46.884;17.410;2023-06-10T01:40:57;13.18;;;6.13;;
76290;SDS011;65100;46.884;17.410;2023-06-10T01:43:23;13.27;;;6.50;;
76290;SDS011;65100;46.884;17.410;2023-06-10T01:45:48;12.55;;;6.80;;
76290;SDS011;65100;46.884;17.410;2023-06-10T01:48:14;14.57;;;6.73;;
76290;SDS011;65100;46.884;17.410;2023-06-10T01:50:40;14.50;;;6.90;;
76290;SDS011;65100;46.884;17.410;2023-06-10T01:53:05;17.92;;;6.80;;
76290;SDS011;65100;46.884;17.410;2023-06-10T01:55:31;12.47;;;6.13;;
76290;SDS011;65100;46.884;17.410;2023-06-10T01:57:56;12.75;;;6.00;;
76290;SDS011;65100;46.884;17.410;2023-06-10T02:00:22;12.97;;;6.83;;
76290;SDS011;65100;46.884;17.410;2023-06-10T02:02:47;11.87;;;6.30;;
76290;SDS011;65100;46.884;17.410;2023-06-10T02:05:13;11.70;;;6.63;;
76290;SDS011;65100;46.884;17.410;2023-06-10T02:07:39;11.53;;;6.50;;
76290;SDS011;65100;46.884;17.410;2023-06-10T02:10:05;12.63;;;6.47;;
76290;SDS011;65100;46.884;17.410;2023-06-10T02:12:31;11.63;;;6.43;;
76290;SDS011;65100;46.884;17.410;2023-06-10T02:14:56;12.93;;;6.10;;
76290;SDS011;65100;46.884;17.410;2023-06-10T02:17:22;11.20;;;6.03;;
76290;SDS011;65100;46.884;17.410;2023-06-10T02:19:48;11.07;;;6.00;;
76290;SDS011;65100;46.884;17.410;2023-06-10T02:22:21;12.70;;;5.97;;
76290;SDS011;65100;46.884;17.410;2023-06-10T02:24:50;13.82;;;6.32;;
76290;SDS011;65100;46.884;17.410;2023-06-10T02:27:15;12.80;;;6.37;;
76290;SDS011;65100;46.884;17.410;2023-06-10T02:29:41;12.38;;;6.68;;
76290;SDS011;65100;46.884;17.410;2023-06-10T02:32:08;13.37;;;6.37;;
76290;SDS011;65100;46.884;17.410;2023-06-10T02:34:34;13.50;;;6.75;;
76290;SDS011;65100;46.884;17.410;2023-06-10T02:37:01;14.90;;;6.57;;
76290;SDS011;65100;46.884;17.410;2023-06-10T02:39:29;14.30;;;6.50;;
76290;SDS011;65100;46.884;17.410;2023-06-10T02:41:55;12.27;;;6.60;;
76290;SDS011;65100;46.884;17.410;2023-06-10T02:44:26;14.63;;;6.90;;
76290;SDS011;65100;46.884;17.410;2023-06-10T02:46:51;14.60;;;7.17;;
76290;SDS011;65100;46.884;17.410;2023-06-10T02:49:17;14.63;;;6.82;;
76290;SDS011;65100;46.884;17.410;2023-06-10T02:51:42;15.10;;;6.90;;
76290;SDS011;65100;46.884;17.410;2023-06-10T02:54:07;13.87;;;6.87;;
76290;SDS011;65100;46.884;17.410;2023-06-10T02:56:33;17.05;;;7.07;;
76290;SDS011;65100;46.884;17.410;2023-06-10T02:58:59;15.93;;;7.50;;
76290;SDS011;65100;46.884;17.410;2023-06-10T03:01:25;13.60;;;6.93;;
76290;SDS011;65100;46.884;17.410;2023-06-10T03:03:51;13.70;;;7.07;;
76290;SDS011;65100;46.884;17.410;2023-06-10T03:06:17;13.00;;;6.68;;
76290;SDS011;65100;46.884;17.410;2023-06-10T03:08:43;13.18;;;6.35;;
76290;SDS011;65100;46.884;17.410;2023-06-10T03:11:09;14.60;;;6.40;;
76290;SDS011;65100;46.884;17.410;2023-06-10T03:13:35;12.00;;;6.60;;
76290;SDS011;65100;46.884;17.410;2023-06-10T03:16:00;12.73;;;6.23;;
76290;SDS011;65100;46.884;17.410;2023-06-10T03:18:28;13.77;;;6.40;;
76290;SDS011;65100;46.884;17.410;2023-06-10T03:20:56;12.30;;;6.50;;
76290;SDS011;65100;46.884;17.410;2023-06-10T03:23:22;13.93;;;7.00;;
76290;SDS011;65100;46.884;17.410;2023-06-10T03:25:48;15.38;;;6.80;;
76290;SDS011;65100;46.884;17.410;2023-06-10T03:28:14;14.40;;;6.65;;
76290;SDS011;65100;46.884;17.410;2023-06-10T03:30:39;16.20;;;7.40;;
76290;SDS011;65100;46.884;17.410;2023-06-10T03:33:05;12.98;;;7.10;;
76290;SDS011;65100;46.884;17.410;2023-06-10T03:35:30;12.33;;;6.53;;
76290;SDS011;65100;46.884;17.410;2023-06-10T03:37:57;14.30;;;6.82;;
76290;SDS011;65100;46.884;17.410;2023-06-10T03:40:23;13.40;;;7.03;;
76290;SDS011;65100;46.884;17.410;2023-06-10T03:42:48;14.48;;;7.30;;
76290;SDS011;65100;46.884;17.410;2023-06-10T03:45:14;13.93;;;6.73;;
76290;SDS011;65100;46.884;17.410;2023-06-10T03:47:39;13.93;;;7.10;;
76290;SDS011;65100;46.884;17.410;2023-06-10T03:50:06;13.93;;;6.55;;
76290;SDS011;65100;46.884;17.410;2023-06-10T03:52:35;12.93;;;7.10;;
76290;SDS011;65100;46.884;17.410;2023-06-10T03:55:01;15.27;;;7.25;;
76290;SDS011;65100;46.884;17.410;2023-06-10T03:57:27;15.13;;;6.97;;
76290;SDS011;65100;46.884;17.410;2023-06-10T03:59:52;14.33;;;7.20;;
76290;SDS011;65100;46.884;17.410;2023-06-10T04:02:17;12.73;;;6.60;;
76290;SDS011;65100;46.884;17.410;2023-06-10T04:04:43;12.67;;;6.47;;
76290;SDS011;65100;46.884;17.410;2023-06-10T04:07:11;14.52;;;6.80;;
76290;SDS011;65100;46.884;17.410;2023-06-10T04:09:37;16.50;;;6.83;;
76290;SDS011;65100;46.884;17.410;2023-06-10T04:12:02;13.93;;;6.60;;
76290;SDS011;65100;46.884;17.410;2023-06-10T04:14:31;14.10;;;6.47;;
76290;SDS011;65100;46.884;17.410;2023-06-10T04:16:56;13.40;;;6.50;;
76290;SDS011;65100;46.884;17.410;2023-06-10T04:19:22;12.13;;;6.80;;
76290;SDS011;65100;46.884;17.410;2023-06-10T04:21:47;15.13;;;6.50;;
76290;SDS011;65100;46.884;17.410;2023-06-10T04:24:12;14.90;;;6.57;;
76290;SDS011;65100;46.884;17.410;2023-06-10T04:26:38;11.55;;;6.50;;
76290;SDS011;65100;46.884;17.410;2023-06-10T04:29:03;13.23;;;6.63;;
76290;SDS011;65100;46.884;17.410;2023-06-10T04:31:29;12.37;;;6.43;;
76290;SDS011;65100;46.884;17.410;2023-06-10T04:33:54;11.23;;;6.10;;
76290;SDS011;65100;46.884;17.410;2023-06-10T04:36:20;12.50;;;6.40;;
76290;SDS011;65100;46.884;17.410;2023-06-10T04:38:45;12.97;;;5.97;;
76290;SDS011;65100;46.884;17.410;2023-06-10T04:41:11;13.25;;;6.95;;
76290;SDS011;65100;46.884;17.410;2023-06-10T04:43:37;11.30;;;6.33;;
76290;SDS011;65100;46.884;17.410;2023-06-10T04:46:03;13.13;;;6.55;;
76290;SDS011;65100;46.884;17.410;2023-06-10T04:48:29;12.02;;;6.32;;
76290;SDS011;65100;46.884;17.410;2023-06-10T04:50:54;12.30;;;6.63;;
76290;SDS011;65100;46.884;17.410;2023-06-10T04:53:21;13.45;;;7.10;;
76290;SDS011;65100;46.884;17.410;2023-06-10T04:55:47;14.45;;;7.07;;
76290;SDS011;65100;46.884;17.410;2023-06-10T04:58:13;12.93;;;6.60;;
76290;SDS011;65100;46.884;17.410;2023-06-10T05:00:39;14.48;;;6.90;;
76290;SDS011;65100;46.884;17.410;2023-06-10T05:03:05;14.07;;;6.67;;
76290;SDS011;65100;46.884;17.410;2023-06-10T05:05:30;12.73;;;6.97;;
76290;SDS011;65100;46.884;17.410;2023-06-10T05:07:55;13.07;;;6.37;;
76290;SDS011;65100;46.884;17.410;2023-06-10T05:10:21;11.70;;;6.47;;
76290;SDS011;65100;46.884;17.410;2023-06-10T05:12:46;13.63;;;7.07;;
76290;SDS011;65100;46.884;17.410;2023-06-10T05:15:12;13.53;;;7.03;;
76290;SDS011;65100;46.884;17.410;2023-06-10T05:17:37;13.77;;;7.17;;
76290;SDS011;65100;46.884;17.410;2023-06-10T05:20:03;13.55;;;6.78;;
76290;SDS011;65100;46.884;17.410;2023-06-10T05:22:29;15.97;;;7.50;;
76290;SDS011;65100;46.884;17.410;2023-06-10T05:24:55;16.50;;;8.13;;
76290;SDS011;65100;46.884;17.410;2023-06-10T05:27:20;18.40;;;9.73;;
76290;SDS011;65100;46.884;17.410;2023-06-10T05:29:47;17.80;;;8.90;;
76290;SDS011;65100;46.884;17.410;2023-06-10T05:32:12;16.47;;;8.70;;
76290;SDS011;65100;46.884;17.410;2023-06-10T05:34:38;18.73;;;9.40;;
76290;SDS011;65100;46.884;17.410;2023-06-10T05:37:03;19.20;;;10.15;;
76290;SDS011;65100;46.884;17.410;2023-06-10T05:39:29;19.40;;;10.27;;
76290;SDS011;65100;46.884;17.410;2023-06-10T05:45:02;17.40;;;9.55;;
76290;SDS011;65100;46.884;17.410;2023-06-10T05:47:28;15.97;;;9.00;;
76290;SDS011;65100;46.884;17.410;2023-06-10T05:49:53;18.63;;;9.10;;
76290;SDS011;65100;46.884;17.410;2023-06-10T05:52:19;17.17;;;9.20;;
76290;SDS011;65100;46.884;17.410;2023-06-10T05:54:44;17.37;;;8.90;;
76290;SDS011;65100;46.884;17.410;2023-06-10T05:57:10;15.43;;;9.13;;
76290;SDS011;65100;46.884;17.410;2023-06-10T05:59:36;14.77;;;8.70;;
76290;SDS011;65100;46.884;17.410;2023-06-10T06:02:01;16.05;;;9.27;;
76290;SDS011;65100;46.884;17.410;2023-06-10T06:04:27;16.23;;;9.33;;
76290;SDS011;65100;46.884;17.410;2023-06-10T06:06:52;18.53;;;10.60;;
76290;SDS011;65100;46.884;17.410;2023-06-10T06:09:17;16.50;;;9.80;;
76290;SDS011;65100;46.884;17.410;2023-06-10T06:11:43;16.90;;;9.25;;
76290;SDS011;65100;46.884;17.410;2023-06-10T06:14:08;16.33;;;9.33;;
76290;SDS011;65100;46.884;17.410;2023-06-10T06:16:34;17.33;;;10.07;;
76290;SDS011;65100;46.884;17.410;2023-06-10T06:18:59;16.90;;;9.77;;
76290;SDS011;65100;46.884;17.410;2023-06-10T06:21:25;14.25;;;8.60;;
76290;SDS011;65100;46.884;17.410;2023-06-10T06:23:50;14.23;;;8.00;;
76290;SDS011;65100;46.884;17.410;2023-06-10T06:26:15;15.27;;;8.30;;
76290;SDS011;65100;46.884;17.410;2023-06-10T06:28:41;13.57;;;8.73;;
76290;SDS011;65100;46.884;17.410;2023-06-10T06:31:06;13.68;;;8.27;;
76290;SDS011;65100;46.884;17.410;2023-06-10T06:33:32;14.07;;;8.57;;
76290;SDS011;65100;46.884;17.410;2023-06-10T06:35:57;14.63;;;8.60;;
76290;SDS011;65100;46.884;17.410;2023-06-10T06:38:25;17.30;;;9.50;;
76290;SDS011;65100;46.884;17.410;2023-06-10T06:40:51;15.80;;;9.38;;
76290;SDS011;65100;46.884;17.410;2023-06-10T06:43:16;14.63;;;8.83;;
76290;SDS011;65100;46.884;17.410;2023-06-10T06:45:43;14.27;;;8.65;;
76290;SDS011;65100;46.884;17.410;2023-06-10T06:48:10;14.48;;;8.82;;
76290;SDS011;65100;46.884;17.410;2023-06-10T06:50:36;14.38;;;9.23;;
76290;SDS011;65100;46.884;17.410;2023-06-10T06:53:01;14.67;;;8.90;;
76290;SDS011;65100;46.884;17.410;2023-06-10T06:55:27;13.27;;;8.57;;
76290;SDS011;65100;46.884;17.410;2023-06-10T06:57:52;13.50;;;8.50;;
76290;SDS011;65100;46.884;17.410;2023-06-10T07:00:18;13.70;;;8.23;;
76290;SDS011;65100;46.884;17.410;2023-06-10T07:02:43;14.32;;;8.95;;
76290;SDS011;65100;46.884;17.410;2023-06-10T07:05:09;13.43;;;8.65;;
76290;SDS011;65100;46.884;17.410;2023-06-10T07:07:35;13.33;;;8.83;;
76290;SDS011;65100;46.884;17.410;2023-06-10T07:10:00;13.20;;;8.57;;
76290;SDS011;65100;46.884;17.410;2023-06-10T07:12:26;13.57;;;8.95;;
76290;SDS011;65100;46.884;17.410;2023-06-10T07:14:52;12.80;;;9.20;;
76290;SDS011;65100;46.884;17.410;2023-06-10T07:17:17;17.10;;;9.57;;
76290;SDS011;65100;46.884;17.410;2023-06-10T07:19:43;15.07;;;9.30;;
76290;SDS011;65100;46.884;17.410;2023-06-10T07:22:09;13.40;;;8.83;;
76290;SDS011;65100;46.884;17.410;2023-06-10T07:24:35;14.63;;;9.70;;
76290;SDS011;65100;46.884;17.410;2023-06-10T07:27:00;14.70;;;9.70;;
76290;SDS011;65100;46.884;17.410;2023-06-10T07:29:25;13.90;;;9.30;;
76290;SDS011;65100;46.884;17.410;2023-06-10T07:31:51;14.60;;;8.83;;
76290;SDS011;65100;46.884;17.410;2023-06-10T07:34:18;15.10;;;9.68;;
76290;SDS011;65100;46.884;17.410;2023-06-10T07:36:43;14.05;;;9.20;;
76290;SDS011;65100;46.884;17.410;2023-06-10T07:39:09;15.83;;;9.60;;
76290;SDS011;65100;46.884;17.410;2023-06-10T07:41:35;16.05;;;9.40;;
76290;SDS011;65100;46.884;17.410;2023-06-10T07:44:00;12.93;;;8.70;;
76290;SDS011;65100;46.884;17.410;2023-06-10T07:46:26;14.70;;;8.83;;
76290;SDS011;65100;46.884;17.410;2023-06-10T07:48:53;14.80;;;8.95;;
76290;SDS011;65100;46.884;17.410;2023-06-10T07:51:19;15.68;;;9.10;;
76290;SDS011;65100;46.884;17.410;2023-06-10T07:53:45;14.73;;;8.63;;
76290;SDS011;65100;46.884;17.410;2023-06-10T07:56:11;13.00;;;8.50;;
76290;SDS011;65100;46.884;17.410;2023-06-10T07:58:36;12.90;;;8.02;;
76290;SDS011;65100;46.884;17.410;2023-06-10T08:01:02;14.30;;;8.20;;
76290;SDS011;65100;46.884;17.410;2023-06-10T08:03:27;13.53;;;8.33;;
76290;SDS011;65100;46.884;17.410;2023-06-10T08:05:53;12.60;;;8.20;;
76290;SDS011;65100;46.884;17.410;2023-06-10T08:08:18;14.00;;;7.50;;
76290;SDS011;65100;46.884;17.410;2023-06-10T08:10:44;13.00;;;7.50;;
76290;SDS011;65100;46.884;17.410;2023-06-10T08:13:09;12.55;;;7.47;;
76290;SDS011;65100;46.884;17.410;2023-06-10T08:15:35;13.13;;;7.67;;
76290;SDS011;65100;46.884;17.410;2023-06-10T08:18:00;12.53;;;7.50;;
76290;SDS011;65100;46.884;17.410;2023-06-10T08:20:26;12.32;;;7.53;;
76290;SDS011;65100;46.884;17.410;2023-06-10T08:22:51;13.03;;;8.17;;
76290;SDS011;65100;46.884;17.410;2023-06-10T08:25:17;12.97;;;7.97;;
76290;SDS011;65100;46.884;17.410;2023-06-10T08:27:42;14.07;;;7.70;;
76290;SDS011;65100;46.884;17.410;2023-06-10T08:30:08;15.63;;;7.40;;
76290;SDS011;65100;46.884;17.410;2023-06-10T08:32:35;13.13;;;7.40;;
76290;SDS011;65100;46.884;17.410;2023-06-10T08:35:01;12.20;;;7.00;;
76290;SDS011;65100;46.884;17.410;2023-06-10T08:37:28;11.13;;;6.82;;
76290;SDS011;65100;46.884;17.410;2023-06-10T08:39:53;11.20;;;6.83;;
76290;SDS011;65100;46.884;17.410;2023-06-10T08:42:22;11.73;;;6.63;;
76290;SDS011;65100;46.884;17.410;2023-06-10T08:44:53;11.65;;;7.10;;
76290;SDS011;65100;46.884;17.410;2023-06-10T08:47:21;11.50;;;7.13;;
76290;SDS011;65100;46.884;17.410;2023-06-10T08:49:49;11.17;;;6.33;;
76290;SDS011;65100;46.884;17.410;2023-06-10T08:52:17;10.45;;;6.00;;
76290;SDS011;65100;46.884;17.410;2023-06-10T08:54:52;11.35;;;6.55;;
76290;SDS011;65100;46.884;17.410;2023-06-10T08:57:24;9.68;;;5.95;;
76290;SDS011;65100;46.884;17.410;2023-06-10T08:59:50;10.33;;;5.90;;
76290;SDS011;65100;46.884;17.410;2023-06-10T09:02:18;11.40;;;6.20;;
76290;SDS011;65100;46.884;17.410;2023-06-10T09:04:46;10.23;;;5.75;;
76290;SDS011;65100;46.884;17.410;2023-06-10T09:07:13;9.68;;;6.10;;
76290;SDS011;65100;46.884;17.410;2023-06-10T09:09:40;9.45;;;5.57;;
76290;SDS011;65100;46.884;17.410;2023-06-10T09:12:07;9.63;;;5.80;;
76290;SDS011;65100;46.884;17.410;2023-06-10T09:14:33;9.35;;;5.80;;
76290;SDS011;65100;46.884;17.410;2023-06-10T09:16:59;8.93;;;5.23;;
76290;SDS011;65100;46.884;17.410;2023-06-10T09:19:27;9.27;;;5.78;;
76290;SDS011;65100;46.884;17.410;2023-06-10T09:21:54;10.67;;;5.60;;
76290;SDS011;65100;46.884;17.410;2023-06-10T09:24:22;10.68;;;5.50;;
76290;SDS011;65100;46.884;17.410;2023-06-10T09:26:49;9.65;;;5.50;;
76290;SDS011;65100;46.884;17.410;2023-06-10T09:29:15;9.87;;;5.50;;
76290;SDS011;65100;46.884;17.410;2023-06-10T09:31:41;12.13;;;5.70;;
76290;SDS011;65100;46.884;17.410;2023-06-10T09:34:09;10.48;;;5.60;;
76290;SDS011;65100;46.884;17.410;2023-06-10T09:36:36;9.52;;;5.50;;
76290;SDS011;65100;46.884;17.410;2023-06-10T09:39:03;10.63;;;6.13;;
76290;SDS011;65100;46.884;17.410;2023-06-10T09:41:32;10.50;;;5.70;;
76290;SDS011;65100;46.884;17.410;2023-06-10T09:44:10;10.45;;;6.25;;
76290;SDS011;65100;46.884;17.410;2023-06-10T09:46:40;11.60;;;5.82;;
76290;SDS011;65100;46.884;17.410;2023-06-10T09:49:06;10.60;;;6.13;;
76290;SDS011;65100;46.884;17.410;2023-06-10T09:51:32;11.55;;;6.35;;
76290;SDS011;65100;46.884;17.410;2023-06-10T09:53:58;11.53;;;6.20;;
76290;SDS011;65100;46.884;17.410;2023-06-10T09:56:37;11.48;;;6.57;;
76290;SDS011;65100;46.884;17.410;2023-06-10T09:59:07;10.90;;;6.50;;
76290;SDS011;65100;46.884;17.410;2023-06-10T10:01:33;11.07;;;6.33;;
76290;SDS011;65100;46.884;17.410;2023-06-10T10:03:59;9.77;;;5.97;;
76290;SDS011;65100;46.884;17.410;2023-06-10T10:06:26;10.43;;;6.18;;
76290;SDS011;65100;46.884;17.410;2023-06-10T10:08:53;12.00;;;6.80;;
76290;SDS011;65100;46.884;17.410;2023-06-10T10:11:19;12.03;;;6.57;;
76290;SDS011;65100;46.884;17.410;2023-06-10T10:13:47;10.50;;;6.35;;
76290;SDS011;65100;46.884;17.410;2023-06-10T10:16:18;10.88;;;6.68;;
76290;SDS011;65100;46.884;17.410;2023-06-10T10:18:48;11.80;;;6.70;;
76290;SDS011;65100;46.884;17.410;2023-06-10T10:21:18;10.82;;;6.22;;
76290;SDS011;65100;46.884;17.410;2023-06-10T10:23:52;10.30;;;6.10;;
76290;SDS011;65100;46.884;17.410;2023-06-10T10:26:21;12.98;;;6.47;;
76290;SDS011;65100;46.884;17.410;2023-06-10T10:28:51;10.80;;;6.55;;
76290;SDS011;65100;46.884;17.410;2023-06-10T10:31:23;11.00;;;6.30;;
76290;SDS011;65100;46.884;17.410;2023-06-10T10:33:59;10.88;;;6.38;;
76290;SDS011;65100;46.884;17.410;2023-06-10T10:36:25;10.70;;;6.28;;
76290;SDS011;65100;46.884;17.410;2023-06-10T10:38:52;10.95;;;6.43;;
76290;SDS011;65100;46.884;17.410;2023-06-10T10:41:19;10.63;;;6.03;;
76290;SDS011;65100;46.884;17.410;2023-06-10T10:43:46;10.17;;;6.27;;
76290;SDS011;65100;46.884;17.410;2023-06-10T10:46:13;11.05;;;6.00;;
76290;SDS011;65100;46.884;17.410;2023-06-10T10:48:40;10.75;;;6.00;;
76290;SDS011;65100;46.884;17.410;2023-06-10T10:51:06;10.05;;;6.15;;
76290;SDS011;65100;46.884;17.410;2023-06-10T10:53:32;10.98;;;6.43;;
76290;SDS011;65100;46.884;17.410;2023-06-10T10:55:58;11.27;;;6.40;;
76290;SDS011;65100;46.884;17.410;2023-06-10T10:58:25;11.38;;;6.38;;
76290;SDS011;65100;46.884;17.410;2023-06-10T11:00:51;11.40;;;6.25;;
76290;SDS011;65100;46.884;17.410;2023-06-10T11:03:16;14.03;;;6.73;;
76290;SDS011;65100;46.884;17.410;2023-06-10T11:05:43;12.38;;;6.93;;
76290;SDS011;65100;46.884;17.410;2023-06-10T11:08:14;11.82;;;7.00;;
76290;SDS011;65100;46.884;17.410;2023-06-10T11:10:41;11.10;;;7.10;;
76290;SDS011;65100;46.884;17.410;2023-06-10T11:13:15;10.85;;;6.65;;
76290;SDS011;65100;46.884;17.410;2023-06-10T11:15:47;10.82;;;6.60;;
76290;SDS011;65100;46.884;17.410;2023-06-10T11:18:15;11.10;;;6.68;;
76290;SDS011;65100;46.884;17.410;2023-06-10T11:23:25;9.73;;;5.70;;
76290;SDS011;65100;46.884;17.410;2023-06-10T11:26:10;10.50;;;6.25;;
76290;SDS011;65100;46.884;17.410;2023-06-10T11:31:21;10.30;;;5.80;;
76290;SDS011;65100;46.884;17.410;2023-06-10T11:33:47;11.35;;;6.30;;
76290;SDS011;65100;46.884;17.410;2023-06-10T11:36:13;10.30;;;6.03;;
76290;SDS011;65100;46.884;17.410;2023-06-10T11:38:40;12.88;;;6.38;;
76290;SDS011;65100;46.884;17.410;2023-06-10T11:41:06;10.70;;;6.50;;
76290;SDS011;65100;46.884;17.410;2023-06-10T11:43:32;11.15;;;6.53;;
76290;SDS011;65100;46.884;17.410;2023-06-10T11:45:58;10.95;;;6.82;;
76290;SDS011;65100;46.884;17.410;2023-06-10T11:48:25;10.70;;;6.35;;
76290;SDS011;65100;46.884;17.410;2023-06-10T11:50:53;11.65;;;6.60;;
76290;SDS011;65100;46.884;17.410;2023-06-10T11:53:19;10.73;;;6.43;;
76290;SDS011;65100;46.884;17.410;2023-06-10T11:55:45;11.10;;;6.20;;
76290;SDS011;65100;46.884;17.410;2023-06-10T11:58:19;10.40;;;6.70;;
76290;SDS011;65100;46.884;17.410;2023-06-10T12:00:52;12.70;;;6.40;;
76290;SDS011;65100;46.884;17.410;2023-06-10T12:03:19;12.40;;;6.47;;
76290;SDS011;65100;46.884;17.410;2023-06-10T12:06:00;10.32;;;6.10;;
76290;SDS011;65100;46.884;17.410;2023-06-10T12:08:30;10.05;;;5.72;;
76290;SDS011;65100;46.884;17.410;2023-06-10T12:10:56;10.20;;;6.00;;
76290;SDS011;65100;46.884;17.410;2023-06-10T12:13:22;10.00;;;6.03;;
76290;SDS011;65100;46.884;17.410;2023-06-10T12:15:51;10.07;;;6.00;;
76290;SDS011;65100;46.884;17.410;2023-06-10T12:20:43;10.35;;;5.90;;
76290;SDS011;65100;46.884;17.410;2023-06-10T12:23:09;11.40;;;5.80;;
76290;SDS011;65100;46.884;17.410;2023-06-10T12:25:35;9.63;;;5.57;;
76290;SDS011;65100;46.884;17.410;2023-06-10T12:28:02;10.48;;;5.38;;
76290;SDS011;65100;46.884;17.410;2023-06-10T12:30:27;9.25;;;5.30;;
76290;SDS011;65100;46.884;17.410;2023-06-10T12:32:54;8.75;;;5.47;;
76290;SDS011;65100;46.884;17.410;2023-06-10T12:35:21;8.30;;;5.20;;
76290;SDS011;65100;46.884;17.410;2023-06-10T12:37:59;9.48;;;5.47;;
76290;SDS011;65100;46.884;17.410;2023-06-10T12:40:29;10.07;;;6.07;;
76290;SDS011;65100;46.884;17.410;2023-06-10T12:42:57;11.55;;;6.30;;
76290;SDS011;65100;46.884;17.410;2023-06-10T12:45:26;10.18;;;5.75;;
76290;SDS011;65100;46.884;17.410;2023-06-10T12:50:32;10.30;;;5.57;;
76290;SDS011;65100;46.884;17.410;2023-06-10T12:52:58;9.13;;;5.65;;
76290;SDS011;65100;46.884;17.410;2023-06-10T12:55:25;10.10;;;5.80;;
76290;SDS011;65100;46.884;17.410;2023-06-10T12:57:50;10.30;;;6.28;;
76290;SDS011;65100;46.884;17.410;2023-06-10T13:00:16;9.67;;;5.70;;
76290;SDS011;65100;46.884;17.410;2023-06-10T13:02:43;9.55;;;5.18;;
76290;SDS011;65100;46.884;17.410;2023-06-10T13:05:08;9.47;;;5.00;;
76290;SDS011;65100;46.884;17.410;2023-06-10T13:07:34;9.98;;;5.38;;
76290;SDS011;65100;46.884;17.410;2023-06-10T13:09:59;9.07;;;5.33;;
76290;SDS011;65100;46.884;17.410;2023-06-10T13:12:26;9.90;;;5.38;;
76290;SDS011;65100;46.884;17.410;2023-06-10T13:14:54;9.33;;;5.27;;
76290;SDS011;65100;46.884;17.410;2023-06-10T13:17:20;9.60;;;5.50;;
76290;SDS011;65100;46.884;17.410;2023-06-10T13:19:46;10.88;;;5.50;;
76290;SDS011;65100;46.884;17.410;2023-06-10T13:22:11;9.23;;;5.20;;
76290;SDS011;65100;46.884;17.410;2023-06-10T13:24:39;11.38;;;5.22;;
76290;SDS011;65100;46.884;17.410;2023-06-10T13:27:04;9.00;;;5.17;;
76290;SDS011;65100;46.884;17.410;2023-06-10T13:29:31;9.35;;;5.20;;
76290;SDS011;65100;46.884;17.410;2023-06-10T13:31:57;8.25;;;4.97;;
76290;SDS011;65100;46.884;17.410;2023-06-10T13:34:22;9.80;;;5.13;;
76290;SDS011;65100;46.884;17.410;2023-06-10T13:36:48;9.30;;;5.30;;
76290;SDS011;65100;46.884;17.410;2023-06-10T13:39:13;8.87;;;5.17;;
76290;SDS011;65100;46.884;17.410;2023-06-10T13:41:40;9.23;;;5.40;;
76290;SDS011;65100;46.884;17.410;2023-06-10T13:44:06;8.95;;;5.38;;
76290;SDS011;65100;46.884;17.410;2023-06-10T13:46:32;9.00;;;5.30;;
76290;SDS011;65100;46.884;17.410;2023-06-10T13:48:57;8.43;;;5.13;;
76290;SDS011;65100;46.884;17.410;2023-06-10T13:51:23;8.90;;;5.30;;
76290;SDS011;65100;46.884;17.410;2023-06-10T13:53:48;9.57;;;5.27;;
76290;SDS011;65100;46.884;17.410;2023-06-10T13:56:15;9.30;;;5.40;;
76290;SDS011;65100;46.884;17.410;2023-06-10T13:58:40;9.80;;;5.40;;
76290;SDS011;65100;46.884;17.410;2023-06-10T14:01:07;9.05;;;5.07;;
76290;SDS011;65100;46.884;17.410;2023-06-10T14:03:33;9.20;;;5.27;;
76290;SDS011;65100;46.884;17.410;2023-06-10T14:05:58;9.80;;;4.97;;
76290;SDS011;65100;46.884;17.410;2023-06-10T14:08:24;8.33;;;4.73;;
76290;SDS011;65100;46.884;17.410;2023-06-10T14:10:49;9.77;;;5.20;;
76290;SDS011;65100;46.884;17.410;2023-06-10T14:13:16;9.70;;;5.35;;
76290;SDS011;65100;46.884;17.410;2023-06-10T14:15:42;9.40;;;5.47;;
76290;SDS011;65100;46.884;17.410;2023-06-10T14:18:07;9.57;;;5.60;;
76290;SDS011;65100;46.884;17.410;2023-06-10T14:20:33;10.00;;;5.28;;
76290;SDS011;65100;46.884;17.410;2023-06-10T14:22:58;9.27;;;5.53;;
76290;SDS011;65100;46.884;17.410;2023-06-10T14:25:24;9.20;;;5.40;;
76290;SDS011;65100;46.884;17.410;2023-06-10T14:27:50;9.98;;;5.60;;
76290;SDS011;65100;46.884;17.410;2023-06-10T14:30:15;9.47;;;5.63;;
76290;SDS011;65100;46.884;17.410;2023-06-10T14:32:41;9.93;;;5.47;;
76290;SDS011;65100;46.884;17.410;2023-06-10T14:35:07;9.43;;;5.47;;
76290;SDS011;65100;46.884;17.410;2023-06-10T14:37:33;8.77;;;5.00;;